createdAt,value
2017-06-08T00:01:19.467Z,59.80
2017-06-08T00:03:46.952Z,59.60
2017-06-08T00:06:15.240Z,59.80
2017-06-08T00:08:42.767Z,59.70
2017-06-08T00:11:10.312Z,59.90
2017-06-08T00:13:37.780Z,59.70
2017-06-08T00:16:05.253Z,59.80
2017-06-08T00:18:33.476Z,60.40
2017-06-08T00:21:00.931Z,60.30
2017-06-08T00:23:28.415Z,60.20
2017-06-08T00:25:55.876Z,59.80
2017-06-08T00:28:23.348Z,59.60
2017-06-08T00:30:50.819Z,59.50
2017-06-08T00:33:19.075Z,59.50
2017-06-08T00:35:46.565Z,59.40
2017-06-08T00:38:14.031Z,59.50
2017-06-08T00:40:41.504Z,59.50
2017-06-08T00:43:08.967Z,59.50
2017-06-08T00:45:36.445Z,59.40
2017-06-08T00:48:03.900Z,59.40
2017-06-08T00:50:31.376Z,59.50
2017-06-08T00:52:58.827Z,59.30
2017-06-08T00:55:26.299Z,59.40
2017-06-08T00:57:53.756Z,59.00
2017-06-08T01:00:21.211Z,58.90
2017-06-08T01:02:48.675Z,58.90
2017-06-08T01:05:16.369Z,59.20
2017-06-08T01:07:43.883Z,59.10
2017-06-08T01:10:11.347Z,59.00
2017-06-08T01:12:38.812Z,59.00
2017-06-08T01:15:07.053Z,59.20
2017-06-08T01:17:34.537Z,59.00
2017-06-08T01:20:02.004Z,59.10
2017-06-08T01:22:29.475Z,59.30
2017-06-08T01:24:57.723Z,59.50
2017-06-08T01:27:25.204Z,59.50
2017-06-08T01:29:53.436Z,60.20
2017-06-08T01:32:20.895Z,60.20
2017-06-08T01:34:48.372Z,59.90
2017-06-08T01:37:15.856Z,59.80
2017-06-08T01:39:44.103Z,59.90
2017-06-08T01:42:11.583Z,59.80
2017-06-08T01:44:39.815Z,59.50
2017-06-08T01:47:07.293Z,59.40
2017-06-08T01:49:34.785Z,59.30
2017-06-08T01:52:02.291Z,59.60
2017-06-08T01:54:29.756Z,59.40
2017-06-08T01:56:57.227Z,59.50
2017-06-08T01:59:24.716Z,60.10
2017-06-08T02:01:52.188Z,59.70
2017-06-08T02:04:19.684Z,59.60
2017-06-08T02:06:47.167Z,59.60
2017-06-08T02:09:15.425Z,59.50
2017-06-08T02:11:42.894Z,59.50
2017-06-08T02:14:10.365Z,59.20
2017-06-08T02:16:38.616Z,59.60
2017-06-08T02:19:06.080Z,59.30
2017-06-08T02:21:33.591Z,59.50
2017-06-08T02:24:01.044Z,59.50
2017-06-08T02:26:28.516Z,59.20
2017-06-08T02:28:56.010Z,59.00
2017-06-08T02:31:23.477Z,59.10
2017-06-08T02:33:50.946Z,59.30
2017-06-08T02:36:19.205Z,59.70
2017-06-08T02:38:46.663Z,59.60
2017-06-08T02:41:18.474Z,59.50
2017-06-08T02:43:45.938Z,59.60
2017-06-08T02:46:19.295Z,59.50
2017-06-08T02:48:47.560Z,58.60
2017-06-08T02:51:15.016Z,58.60
2017-06-08T02:53:42.501Z,58.90
2017-06-08T02:56:09.968Z,58.90
2017-06-08T02:58:37.443Z,58.80
2017-06-08T03:01:04.896Z,58.80
2017-06-08T03:03:32.392Z,58.80
2017-06-08T03:05:59.847Z,58.70
2017-06-08T03:08:27.312Z,59.00
2017-06-08T03:10:54.783Z,58.90
2017-06-08T03:13:23.124Z,59.10
2017-06-08T03:15:50.575Z,59.10
2017-06-08T03:18:18.067Z,59.10
2017-06-08T03:20:46.309Z,59.30
2017-06-08T03:23:13.791Z,59.30
2017-06-08T03:25:41.261Z,59.20
2017-06-08T03:28:09.492Z,59.60
2017-06-08T03:30:36.976Z,59.00
2017-06-08T03:33:04.443Z,59.30
2017-06-08T03:35:31.912Z,59.40
2017-06-08T03:38:00.151Z,59.30
2017-06-08T03:40:27.626Z,59.70
2017-06-08T03:46:10.724Z,59.50
2017-06-08T03:51:39.439Z,58.60
2017-06-08T03:59:53.967Z,58.90
2017-06-08T04:02:21.440Z,58.90
2017-06-08T04:04:48.920Z,59.30
2017-06-08T04:07:16.389Z,59.00
2017-06-08T04:09:43.854Z,58.90
2017-06-08T04:12:14.907Z,59.00
2017-06-08T04:14:42.392Z,58.90
2017-06-08T04:17:09.895Z,59.10
2017-06-08T04:19:38.119Z,59.40
2017-06-08T04:22:05.581Z,59.30
2017-06-08T04:24:33.047Z,59.60
2017-06-08T04:27:00.636Z,59.60
2017-06-08T04:29:28.875Z,59.70
2017-06-08T04:31:56.344Z,59.60
2017-06-08T04:34:23.832Z,59.60
2017-06-08T04:36:52.096Z,59.20
2017-06-08T04:39:20.336Z,59.50
2017-06-08T04:41:47.809Z,59.50
2017-06-08T04:44:15.273Z,59.40
2017-06-08T04:46:42.739Z,59.40
2017-06-08T04:49:10.972Z,59.10
2017-06-08T04:51:38.445Z,59.10
2017-06-08T04:54:05.932Z,59.50
2017-06-08T04:56:34.184Z,60.00
2017-06-08T04:59:21.363Z,59.40
2017-06-08T05:01:48.820Z,59.20
2017-06-08T05:04:16.329Z,58.90
2017-06-08T05:06:43.803Z,59.50
2017-06-08T05:09:12.049Z,59.60
2017-06-08T05:11:39.523Z,59.60
2017-06-08T05:14:06.989Z,58.90
2017-06-08T05:16:35.232Z,57.70
2017-06-08T05:19:02.692Z,57.70
2017-06-08T05:21:30.199Z,57.90
2017-06-08T05:23:58.424Z,57.40
2017-06-08T05:26:25.892Z,57.30
2017-06-08T05:28:53.372Z,58.00
2017-06-08T05:31:21.615Z,56.60
2017-06-08T05:33:49.072Z,56.50
2017-06-08T05:36:16.655Z,56.80
2017-06-08T05:38:44.118Z,57.70
2017-06-08T05:43:48.692Z,55.30
2017-06-08T05:46:16.150Z,55.40
2017-06-08T05:48:43.625Z,55.30
2017-06-08T05:51:11.090Z,57.00
2017-06-08T05:53:38.555Z,54.40
2017-06-08T05:56:06.027Z,54.30
2017-06-08T05:58:33.503Z,54.40
2017-06-08T06:01:00.972Z,53.40
2017-06-08T06:03:29.203Z,54.00
2017-06-08T06:05:56.669Z,54.00
2017-06-08T06:08:24.139Z,53.10
2017-06-08T06:10:51.596Z,53.60
2017-06-08T06:16:35.784Z,53.30
2017-06-08T06:19:04.019Z,54.80
2017-06-08T06:21:31.484Z,54.80
2017-06-08T06:23:58.956Z,54.80
2017-06-08T06:26:26.429Z,54.20
2017-06-08T06:28:54.682Z,54.40
2017-06-08T06:31:22.143Z,54.30
2017-06-08T06:33:49.616Z,52.40
2017-06-08T06:42:03.284Z,51.90
2017-06-08T06:47:23.641Z,51.90
2017-06-08T06:49:51.103Z,52.30
2017-06-08T06:52:18.583Z,52.00
2017-06-08T06:54:46.055Z,52.10
2017-06-08T06:57:13.530Z,52.90
2017-06-08T06:59:40.998Z,53.10
2017-06-08T07:02:09.255Z,54.00
2017-06-08T07:04:36.717Z,53.90
2017-06-08T07:07:04.188Z,53.00
2017-06-08T07:09:32.427Z,52.60
2017-06-08T07:11:59.910Z,52.60
2017-06-08T07:14:27.367Z,52.00
2017-06-08T07:16:54.848Z,51.90
2017-06-08T07:19:22.331Z,51.90
2017-06-08T07:21:49.804Z,51.50
2017-06-08T07:24:17.277Z,51.60
2017-06-08T07:26:44.749Z,50.50
2017-06-08T07:29:12.214Z,51.70
2017-06-08T07:31:40.449Z,51.60
2017-06-08T07:34:07.917Z,51.60
2017-06-08T07:36:38.823Z,50.80
2017-06-08T07:39:06.298Z,51.30
2017-06-08T07:41:33.752Z,51.20
2017-06-08T07:44:01.248Z,52.90
2017-06-08T07:46:28.709Z,50.60
2017-06-08T07:48:56.204Z,49.90
2017-06-08T07:51:23.679Z,50.70
2017-06-08T08:02:43.208Z,51.10
2017-06-08T08:05:11.920Z,50.70
2017-06-08T08:07:40.319Z,50.80
2017-06-08T08:10:07.804Z,51.30
2017-06-08T08:12:44.627Z,49.40
2017-06-08T08:15:12.089Z,49.50
2017-06-08T08:17:39.561Z,49.40
2017-06-08T08:20:07.073Z,50.20
2017-06-08T08:22:34.536Z,49.40
2017-06-08T08:25:02.004Z,49.00
2017-06-08T08:27:29.479Z,49.00
2017-06-08T08:29:56.965Z,48.70
2017-06-08T08:32:24.425Z,48.20
2017-06-08T08:34:52.647Z,48.50
2017-06-08T08:37:20.137Z,48.00
2017-06-08T08:39:47.601Z,47.70
2017-06-08T08:42:15.073Z,47.90
2017-06-08T08:44:42.539Z,47.30
2017-06-08T08:47:10.767Z,43.80
2017-06-08T08:49:38.227Z,43.80
2017-06-08T08:52:05.709Z,45.00
2017-06-08T08:54:33.179Z,45.50
2017-06-08T08:59:55.615Z,44.60
2017-06-08T09:02:23.101Z,44.60
2017-06-08T09:04:51.343Z,42.20
2017-06-08T09:07:18.799Z,42.10
2017-06-08T09:09:46.262Z,42.70
2017-06-08T09:12:13.725Z,42.70
2017-06-08T09:14:41.186Z,42.80
2017-06-08T09:17:08.668Z,41.90
2017-06-08T09:19:36.912Z,43.20
2017-06-08T09:22:04.363Z,43.10
2017-06-08T09:24:31.828Z,43.30
2017-06-08T09:26:59.304Z,42.30
2017-06-08T09:29:48.243Z,42.60
2017-06-08T09:35:09.643Z,42.00
2017-06-08T09:37:37.187Z,43.00
2017-06-08T09:40:04.658Z,43.70
2017-06-08T09:42:32.168Z,41.40
2017-06-08T09:44:59.639Z,41.40
2017-06-08T09:47:27.861Z,40.80
2017-06-08T09:49:55.332Z,40.70
2017-06-08T09:52:22.787Z,40.30
2017-06-08T09:54:50.314Z,40.50
2017-06-08T09:57:17.787Z,41.20
2017-06-08T09:59:45.249Z,42.50
2017-06-08T10:02:12.709Z,42.20
2017-06-08T10:04:40.192Z,40.50
2017-06-08T10:07:07.647Z,41.40
2017-06-08T10:09:35.111Z,42.20
2017-06-08T10:12:02.598Z,42.60
2017-06-08T10:14:30.832Z,42.00
2017-06-08T10:16:58.300Z,42.00
2017-06-08T10:19:25.756Z,41.80
2017-06-08T10:21:53.401Z,41.40
2017-06-08T10:24:20.857Z,41.00
2017-06-08T10:26:48.445Z,41.60
2017-06-08T10:29:15.912Z,42.70
2017-06-08T10:31:44.168Z,41.50
2017-06-08T10:34:11.634Z,41.40
2017-06-08T10:36:39.105Z,41.80
2017-06-08T10:39:07.343Z,42.90
2017-06-08T10:41:34.839Z,42.70
2017-06-08T10:44:03.077Z,41.20
2017-06-08T10:46:31.219Z,40.80
2017-06-08T10:48:58.722Z,42.40
2017-06-08T10:51:26.203Z,42.10
2017-06-08T10:53:54.431Z,41.10
2017-06-08T10:56:21.941Z,41.10
2017-06-08T10:58:49.387Z,40.30
2017-06-08T11:01:17.628Z,40.20
2017-06-08T11:06:44.012Z,41.00
2017-06-08T11:09:11.497Z,40.70
2017-06-08T11:11:38.969Z,39.40
2017-06-08T11:14:06.443Z,40.40
2017-06-08T11:16:33.925Z,40.70
2017-06-08T11:19:01.408Z,39.20
2017-06-08T11:21:29.634Z,38.50
2017-06-08T11:23:57.098Z,38.40
2017-06-08T11:26:24.549Z,39.20
2017-06-08T11:28:52.029Z,39.10
2017-06-08T11:31:19.507Z,39.30
2017-06-08T11:33:47.769Z,39.10
2017-06-08T11:36:15.228Z,39.40
2017-06-08T11:44:33.315Z,38.80
2017-06-08T11:47:00.787Z,37.30
2017-06-08T11:49:29.040Z,39.60
2017-06-08T11:51:56.540Z,39.50
2017-06-08T11:54:24.016Z,37.30
2017-06-08T11:56:51.507Z,38.80
2017-06-08T11:59:18.966Z,39.50
2017-06-08T12:01:46.437Z,37.90
2017-06-08T12:04:13.895Z,36.70
2017-06-08T12:06:42.140Z,38.00
2017-06-08T12:09:09.624Z,38.00
2017-06-08T12:11:37.093Z,38.50
2017-06-08T12:14:05.332Z,37.30
2017-06-08T12:16:32.887Z,37.20
2017-06-08T12:19:00.355Z,37.40
2017-06-08T12:21:27.837Z,37.60
2017-06-08T12:23:55.287Z,38.00
2017-06-08T12:26:22.791Z,37.40
2017-06-08T12:28:50.272Z,36.50
2017-06-08T12:31:17.755Z,38.40
2017-06-08T12:33:45.232Z,38.40
2017-06-08T12:36:13.462Z,37.80
2017-06-08T12:38:40.935Z,37.70
2017-06-08T12:41:09.354Z,38.10
2017-06-08T12:43:37.599Z,38.50
2017-06-08T12:46:05.064Z,38.50
2017-06-08T12:48:32.569Z,37.80
2017-06-08T12:51:00.088Z,37.90
2017-06-08T12:53:28.355Z,37.40
2017-06-08T12:55:55.839Z,37.30
2017-06-08T12:58:24.071Z,37.20
2017-06-08T13:00:51.539Z,37.10
2017-06-08T13:03:19.020Z,37.40
2017-06-08T13:05:47.256Z,36.60
2017-06-08T13:08:14.744Z,36.50
2017-06-08T13:10:42.229Z,35.50
2017-06-08T13:13:09.688Z,34.70
2017-06-08T13:15:37.184Z,36.90
2017-06-08T13:18:04.632Z,35.60
2017-06-08T13:20:32.112Z,35.80
2017-06-08T13:22:59.568Z,34.20
2017-06-08T13:25:27.066Z,34.10
2017-06-08T13:27:54.523Z,34.90
2017-06-08T13:30:22.062Z,36.30
2017-06-08T13:38:53.884Z,35.40
2017-06-08T13:41:21.363Z,35.60
2017-06-08T13:43:48.835Z,36.70
2017-06-08T13:46:16.311Z,36.50
2017-06-08T13:48:43.798Z,35.80
2017-06-08T13:51:12.060Z,36.60
2017-06-08T13:53:39.518Z,36.50
2017-06-08T13:56:06.981Z,35.10
2017-06-08T14:01:27.208Z,36.70
2017-06-08T14:03:55.424Z,36.00
2017-06-08T14:06:22.913Z,35.90
2017-06-08T14:08:50.406Z,36.80
2017-06-08T14:11:17.959Z,36.30
2017-06-08T14:13:46.208Z,35.70
2017-06-08T14:16:13.969Z,35.70
2017-06-08T14:18:41.431Z,34.70
2017-06-08T14:21:08.890Z,36.60
2017-06-08T14:23:36.421Z,35.60
2017-06-08T14:26:04.004Z,35.70
2017-06-08T14:28:31.493Z,36.80
2017-06-08T14:30:59.739Z,34.90
2017-06-08T14:33:27.231Z,34.90
2017-06-08T14:35:54.699Z,34.90
2017-06-08T14:41:24.516Z,36.10
2017-06-08T14:43:51.996Z,36.00
2017-06-08T14:46:19.480Z,34.50
2017-06-08T14:48:46.987Z,34.40
2017-06-08T14:51:15.204Z,33.80
2017-06-08T14:53:42.752Z,33.70
2017-06-08T14:56:10.235Z,34.70
2017-06-08T14:58:37.731Z,33.70
2017-06-08T15:01:05.985Z,35.60
2017-06-08T15:03:33.447Z,35.60
2017-06-08T15:06:00.907Z,35.50
2017-06-08T15:08:29.148Z,35.70
2017-06-08T15:10:56.621Z,35.30
2017-06-08T15:13:24.087Z,39.50
2017-06-08T15:15:57.780Z,34.30
2017-06-08T15:18:25.240Z,35.40
2017-06-08T15:20:52.707Z,33.60
2017-06-08T15:23:20.175Z,34.20
2017-06-08T15:25:48.429Z,34.70
2017-06-08T15:28:15.892Z,34.40
2017-06-08T15:30:43.388Z,34.40
2017-06-08T15:33:10.863Z,33.00
2017-06-08T15:35:38.330Z,33.70
2017-06-08T15:38:05.795Z,33.80
2017-06-08T15:40:33.337Z,32.90
2017-06-08T15:43:00.812Z,32.50
2017-06-08T15:45:28.279Z,32.80
2017-06-08T15:47:55.759Z,32.90
2017-06-08T15:50:23.251Z,32.50
2017-06-08T15:52:51.476Z,31.90
2017-06-08T15:55:18.957Z,31.90
2017-06-08T15:57:46.431Z,32.30
2017-06-08T16:00:14.654Z,30.80
2017-06-08T16:02:42.138Z,30.80
2017-06-08T16:05:10.161Z,31.60
2017-06-08T16:07:37.676Z,30.90
2017-06-08T16:10:05.932Z,30.00
2017-06-08T16:12:33.419Z,29.90
2017-06-08T16:15:01.671Z,31.40
2017-06-08T16:17:29.131Z,31.40
2017-06-08T16:19:56.632Z,30.00
2017-06-08T16:22:24.089Z,29.70
2017-06-08T16:24:51.590Z,29.90
2017-06-08T16:27:19.059Z,29.20
2017-06-08T16:29:46.531Z,29.70
2017-06-08T16:32:13.988Z,29.60
2017-06-08T16:34:41.567Z,28.30
2017-06-08T16:37:09.788Z,27.30
2017-06-08T16:39:37.255Z,27.20
2017-06-08T16:45:11.373Z,26.40
2017-06-08T16:47:38.859Z,26.50
2017-06-08T16:50:06.351Z,26.00
2017-06-08T16:52:34.599Z,25.00
2017-06-08T16:55:02.075Z,25.00
2017-06-08T17:00:23.984Z,24.50
2017-06-08T17:11:31.133Z,24.10
2017-06-08T17:13:58.606Z,24.10
2017-06-08T17:16:26.080Z,24.20
2017-06-08T17:18:54.311Z,24.30
2017-06-08T17:21:21.814Z,24.30
2017-06-08T17:26:44.268Z,23.80
2017-06-08T17:29:12.489Z,23.90
2017-06-08T17:34:33.467Z,23.70
2017-06-08T17:37:01.715Z,24.50
2017-06-08T17:39:29.192Z,24.10
2017-06-08T17:41:56.671Z,24.30
2017-06-08T17:44:24.909Z,24.20
2017-06-08T17:46:52.367Z,24.20
2017-06-08T17:49:19.851Z,24.90
2017-06-08T17:51:48.087Z,28.40
2017-06-08T17:54:15.605Z,28.30
2017-06-08T17:56:43.059Z,29.90
2017-06-08T18:02:03.352Z,33.10
2017-06-08T18:04:31.587Z,35.70
2017-06-08T18:06:59.057Z,35.70
2017-06-08T18:09:26.543Z,36.90
2017-06-08T18:14:48.345Z,38.10
2017-06-08T18:17:15.818Z,38.10
2017-06-08T18:25:41.320Z,40.20
2017-06-08T18:28:08.816Z,40.20
2017-06-08T18:30:36.311Z,40.80
2017-06-08T18:33:04.548Z,41.80
2017-06-08T18:35:32.028Z,41.30
2017-06-08T18:37:59.499Z,42.30
2017-06-08T18:40:27.747Z,43.10
2017-06-08T18:42:55.255Z,43.10
2017-06-08T18:45:22.728Z,43.50
2017-06-08T18:47:50.217Z,44.20
2017-06-08T18:50:17.709Z,43.80
2017-06-08T18:52:45.976Z,47.20
2017-06-08T18:55:13.471Z,47.10
2017-06-08T18:57:40.981Z,47.20
2017-06-08T19:03:02.495Z,48.50
2017-06-08T19:05:29.978Z,48.30
2017-06-08T19:07:57.448Z,49.50
2017-06-08T19:10:24.932Z,50.40
2017-06-08T19:15:45.463Z,50.70
2017-06-08T19:20:49.720Z,51.40
2017-06-08T19:23:17.213Z,52.20
2017-06-08T19:31:31.934Z,53.20
2017-06-08T19:33:59.423Z,55.80
2017-06-08T19:36:26.895Z,55.90
2017-06-08T19:38:54.387Z,55.30
2017-06-08T19:44:15.251Z,56.90
2017-06-08T19:46:42.715Z,56.00
2017-06-08T19:49:10.223Z,56.30
2017-06-08T19:51:38.463Z,55.70
2017-06-08T19:54:05.926Z,55.60
2017-06-08T19:56:47.120Z,55.40
2017-06-08T19:59:14.640Z,55.80
2017-06-08T20:01:42.096Z,56.00
2017-06-08T20:04:09.584Z,55.80
2017-06-08T20:12:25.220Z,57.00
2017-06-08T20:14:52.693Z,57.00
2017-06-08T20:17:21.076Z,57.40
2017-06-08T20:19:50.375Z,57.50
2017-06-08T20:22:17.855Z,57.40
2017-06-08T20:24:45.344Z,57.30
2017-06-08T20:27:12.807Z,57.80
2017-06-08T20:29:40.279Z,57.90
2017-06-08T20:32:07.765Z,58.60
2017-06-08T20:34:42.565Z,58.50
2017-06-08T20:40:03.905Z,58.20
2017-06-08T20:42:31.392Z,58.10
2017-06-08T20:44:59.615Z,58.70
2017-06-08T20:47:27.115Z,58.70
2017-06-08T20:49:55.375Z,58.90
2017-06-08T20:55:17.212Z,59.70
2017-06-08T20:57:44.681Z,59.70
2017-06-08T21:00:12.147Z,59.90
2017-06-08T21:02:40.407Z,60.80
2017-06-08T21:05:08.431Z,60.70
2017-06-08T21:07:35.980Z,60.80
2017-06-08T21:12:57.437Z,60.20
2017-06-08T21:15:37.486Z,60.20
2017-06-08T21:18:04.977Z,60.60
2017-06-08T21:20:32.443Z,60.80
2017-06-08T21:23:07.603Z,60.70
2017-06-08T21:25:35.849Z,61.10
2017-06-08T21:28:03.327Z,61.00
2017-06-08T21:33:23.791Z,61.30
2017-06-08T21:35:51.295Z,62.40
2017-06-08T21:38:19.531Z,62.70
2017-06-08T21:40:47.579Z,62.20
2017-06-08T21:43:15.042Z,62.60
2017-06-08T21:45:42.516Z,61.70
2017-06-08T21:48:09.989Z,61.10
2017-06-08T21:50:37.464Z,61.00
2017-06-08T21:53:04.924Z,61.50
2017-06-08T21:55:32.393Z,61.20
2017-06-08T21:58:00.630Z,61.10
2017-06-08T22:00:28.139Z,61.10
2017-06-08T22:02:56.368Z,62.30
2017-06-08T22:05:23.851Z,62.20
2017-06-08T22:07:51.332Z,62.10
2017-06-08T22:10:18.844Z,62.30
2017-06-08T22:12:46.299Z,62.20
2017-06-08T22:15:13.759Z,61.60
2017-06-08T22:17:41.220Z,61.00
2017-06-08T22:20:08.680Z,60.50
2017-06-08T22:22:36.297Z,61.60
2017-06-08T22:25:03.755Z,62.70
2017-06-08T22:27:31.235Z,62.80
2017-06-08T22:29:58.694Z,63.30
2017-06-08T22:32:26.178Z,63.10
2017-06-08T22:34:53.645Z,61.30
2017-06-08T22:37:21.130Z,61.50
2017-06-08T22:39:48.603Z,62.30
2017-06-08T22:42:16.064Z,62.40
2017-06-08T22:44:43.548Z,62.60
2017-06-08T22:47:11.032Z,62.70
2017-06-08T22:49:38.499Z,63.30
2017-06-08T22:52:06.735Z,62.90
2017-06-08T22:54:34.250Z,62.90
2017-06-08T22:57:01.725Z,62.60
2017-06-08T22:59:29.214Z,61.70
2017-06-08T23:01:56.672Z,61.60
2017-06-08T23:04:24.152Z,61.90
2017-06-08T23:06:51.608Z,62.00
2017-06-08T23:09:19.087Z,62.60
2017-06-08T23:11:47.328Z,63.50
2017-06-08T23:14:14.800Z,63.50
2017-06-08T23:16:42.277Z,63.80
2017-06-08T23:19:10.547Z,62.40
2017-06-08T23:21:38.784Z,62.90
2017-06-08T23:24:06.264Z,62.80
2017-06-08T23:26:33.723Z,63.00
2017-06-08T23:29:01.240Z,63.00
2017-06-08T23:31:28.709Z,63.10
2017-06-08T23:33:56.166Z,64.00
2017-06-08T23:36:23.632Z,64.10
2017-06-08T23:38:51.088Z,64.30
2017-06-08T23:41:25.276Z,64.10
2017-06-08T23:43:52.739Z,64.20
2017-06-08T23:46:20.235Z,64.50
2017-06-08T23:48:47.690Z,64.60
2017-06-08T23:51:15.151Z,64.90
2017-06-08T23:53:42.607Z,64.90
2017-06-08T23:56:10.067Z,64.80
2017-06-08T23:58:37.629Z,64.40
